Time;durP1;ratioP1;P1;durP2;ratioP2;P2;SDS_P1;SDS_P2;PMS_P1;PMS_P2;Temp;Humidity;BMP_temperature;BMP_pressure;BME280_temperature;BME280_humidity;BME280_pressure;Samples;Min_cycle;Max_cycle;Signal;HPM_P1;HPM_P2
2022/12/24 00:00:54;;;;;;;45.58;6.82;;;;;;;9.07;100.00;100623.38;5120571;27;20043;-88
2022/12/24 00:03:19;;;;;;;42.20;6.47;;;;;;;9.09;100.00;100628.63;5108441;27;20501;-89
2022/12/24 00:05:45;;;;;;;49.33;6.25;;;;;;;9.03;100.00;100625.22;5116091;27;20051;-88
2022/12/24 00:08:10;;;;;;;37.47;6.28;;;;;;;9.08;100.00;100633.06;5124294;27;20035;-88
2022/12/24 00:10:35;;;;;;;32.85;5.65;;;;;;;9.04;100.00;100629.56;5117146;27;20339;-88
2022/12/24 00:13:01;;;;;;;51.53;8.65;;;;;;;9.02;100.00;100630.50;5123556;27;20117;-88
2022/12/24 00:15:26;;;;;;;33.13;6.07;;;;;;;9.02;100.00;100635.78;5134452;27;20455;-91
2022/12/24 00:17:52;;;;;;;39.65;6.38;;;;;;;9.05;100.00;100638.41;5127887;27;20066;-88
2022/12/24 00:20:17;;;;;;;51.97;6.85;;;;;;;9.01;100.00;100634.06;5114340;28;20028;-88
2022/12/24 00:22:43;;;;;;;40.13;6.38;;;;;;;9.01;100.00;100639.34;5134285;27;20043;-88
2022/12/24 00:25:08;;;;;;;41.15;6.25;;;;;;;8.96;100.00;100643.84;5123235;27;20084;-88
2022/12/24 00:27:34;;;;;;;38.65;6.97;;;;;;;8.93;100.00;100650.06;5112683;27;20051;-88
2022/12/24 00:29:59;;;;;;;38.08;6.32;;;;;;;8.96;100.00;100655.28;5117166;27;20039;-88
2022/12/24 00:32:25;;;;;;;48.92;7.63;;;;;;;8.94;100.00;100657.06;5097498;28;20023;-88
2022/12/24 00:34:50;;;;;;;41.40;6.85;;;;;;;8.95;100.00;100673.78;5116502;27;20133;-88
2022/12/24 00:37:16;;;;;;;42.72;7.10;;;;;;;8.93;100.00;100667.69;5108262;28;20153;-90
2022/12/24 00:39:41;;;;;;;41.58;7.03;;;;;;;8.94;100.00;100672.91;5117341;28;20046;-88
2022/12/24 00:42:07;;;;;;;42.35;6.55;;;;;;;8.94;100.00;100675.56;5130837;27;20042;-87
2022/12/24 00:44:32;;;;;;;43.88;6.28;;;;;;;8.93;100.00;100684.38;5117004;28;20035;-88
2022/12/24 00:46:58;;;;;;;37.35;7.43;;;;;;;8.91;100.00;100683.53;5084451;27;20015;-88
2022/12/24 00:49:23;;;;;;;36.90;6.40;;;;;;;8.94;100.00;100680.84;5133952;27;20039;-88
2022/12/24 00:51:49;;;;;;;40.65;7.07;;;;;;;8.93;100.00;100675.59;5120484;27;20067;-88
2022/12/24 00:54:14;;;;;;;38.53;7.57;;;;;;;8.88;100.00;100677.41;5127728;27;20035;-88
2022/12/24 00:56:40;;;;;;;37.85;5.82;;;;;;;8.84;100.00;100687.19;5142694;27;20092;-88
2022/12/24 00:59:05;;;;;;;38.35;6.65;;;;;;;8.91;100.00;100698.50;5125174;27;20042;-91
2022/12/24 01:01:31;;;;;;;48.15;7.22;;;;;;;8.91;100.00;100702.03;5119135;27;20015;-89
2022/12/24 01:06:41;;;;;;;36.53;5.97;;;;;;;8.83;100.00;100707.44;5148005;27;20092;-89
2022/12/24 01:09:06;;;;;;;37.35;7.90;;;;;;;8.85;100.00;100696.81;5136340;27;20023;-89
2022/12/24 01:11:32;;;;;;;36.08;6.53;;;;;;;8.85;100.00;100712.66;5130153;27;20026;-89
2022/12/24 01:13:57;;;;;;;37.95;5.47;;;;;;;8.79;100.00;100700.44;5130440;27;20470;-88
2022/12/24 01:16:23;;;;;;;31.65;5.53;;;;;;;8.80;100.00;100704.84;5119016;27;20035;-89
2022/12/24 01:18:48;;;;;;;46.60;7.47;;;;;;;8.76;100.00;100697.00;5131324;27;20110;-89
2022/12/24 01:21:14;;;;;;;43.65;7.18;;;;;;;8.79;100.00;100715.44;5129128;27;20118;-89
2022/12/24 01:23:40;;;;;;;33.00;4.95;;;;;;;8.74;100.00;100714.63;5134824;27;20198;-89
2022/12/24 01:26:06;;;;;;;39.90;5.95;;;;;;;8.72;100.00;100725.22;5151158;27;20034;-88
2022/12/24 01:28:32;;;;;;;40.78;6.65;;;;;;;8.68;100.00;100725.28;5096624;27;20379;-89
2022/12/24 01:30:58;;;;;;;48.60;8.27;;;;;;;8.74;100.00;100730.47;5121255;28;20039;-89
2022/12/24 01:33:27;;;;;;;41.10;6.35;;;;;;;8.68;100.00;100725.28;5145480;27;20046;-89
2022/12/24 01:35:53;;;;;;;38.78;7.22;;;;;;;8.69;100.00;100729.69;5130912;27;20043;-89
2022/12/24 01:38:18;;;;;;;38.20;6.20;;;;;;;8.66;100.00;100741.16;5146058;27;20034;-89
2022/12/24 01:43:31;;;;;;;33.28;6.43;;;;;;;8.67;100.00;100747.31;5116804;27;20393;-88
2022/12/24 01:46:06;;;;;;;38.53;6.53;;;;;;;8.63;100.00;100737.69;5134183;27;20481;-89
2022/12/24 01:48:44;;;;;;;39.78;6.82;;;;;;;8.59;100.00;100750.06;5141065;27;20019;-88
2022/12/24 01:51:09;;;;;;;32.33;5.25;;;;;;;8.56;100.00;100748.34;5144874;27;20062;-88
2022/12/24 01:53:37;;;;;;;42.50;6.30;;;;;;;8.51;100.00;100750.19;5106667;27;20054;-89
2022/12/24 01:56:05;;;;;;;51.83;7.70;;;;;;;8.49;100.00;100754.59;5128815;27;20043;-89
2022/12/24 01:58:34;;;;;;;35.70;6.70;;;;;;;8.48;100.00;100759.91;5144985;27;20385;-89
2022/12/24 02:01:00;;;;;;;32.72;6.05;;;;;;;8.47;100.00;100769.59;5129512;27;20034;-89
2022/12/24 02:03:25;;;;;;;35.95;6.53;;;;;;;8.48;100.00;100773.09;5141420;27;20031;-78
2022/12/24 02:05:54;;;;;;;36.90;6.45;;;;;;;8.47;100.00;100774.88;5117186;27;20035;-80
2022/12/24 02:08:20;;;;;;;34.97;6.95;;;;;;;8.50;100.00;100780.09;5134558;27;20430;-79
2022/12/24 02:10:47;;;;;;;36.05;6.75;;;;;;;8.54;100.00;100780.94;5116757;27;20049;-79
2022/12/24 02:13:15;;;;;;;40.13;7.45;;;;;;;8.57;100.00;100783.53;5116881;27;20497;-79
2022/12/24 02:16:13;;;;;;;40.80;5.95;;;;;;;8.55;100.00;100780.03;5106600;27;20088;-78
2022/12/24 02:18:52;;;;;;;36.85;6.47;;;;;;;8.52;100.00;100780.94;5118159;27;20066;-78
2022/12/24 02:21:36;;;;;;;40.75;7.78;;;;;;;8.56;100.00;100792.34;5134757;27;20053;-79
2022/12/24 02:24:23;;;;;;;48.15;7.82;;;;;;;8.55;100.00;100788.81;5151824;27;20031;-78
2022/12/24 02:27:00;;;;;;;39.25;6.55;;;;;;;8.53;100.00;100782.72;5134918;27;20434;-79
2022/12/24 02:29:58;;;;;;;33.53;6.10;;;;;;;8.54;100.00;100787.09;5134858;27;20031;-78
2022/12/24 02:32:42;;;;;;;47.13;7.85;;;;;;;8.55;100.00;100794.09;5152825;27;20082;-79
2022/12/24 02:35:14;;;;;;;48.20;8.55;;;;;;;8.59;100.00;100794.94;5119232;27;20532;-79
2022/12/24 02:37:46;;;;;;;44.13;7.95;;;;;;;8.64;100.00;100798.38;5152646;27;20026;-79
2022/12/24 02:40:27;;;;;;;39.50;8.15;;;;;;;8.61;100.00;100796.66;5137057;27;20466;-79
2022/12/24 02:42:57;;;;;;;37.15;7.95;;;;;;;8.65;100.00;100797.47;5132305;27;20031;-79
2022/12/24 02:45:31;;;;;;;52.45;8.02;;;;;;;8.68;100.00;100796.56;5148638;27;20043;-88
2022/12/24 02:47:58;;;;;;;38.30;7.25;;;;;;;8.64;100.00;100797.53;5148294;27;20552;-88
2022/12/24 02:50:24;;;;;;;49.95;9.05;;;;;;;8.64;100.00;100808.06;5131785;27;20026;-88
2022/12/24 02:52:50;;;;;;;50.20;9.73;;;;;;;8.64;100.00;100803.66;5119918;27;20034;-88
2022/12/24 02:55:18;;;;;;;57.63;9.07;;;;;;;8.66;100.00;100808.94;5137599;27;20031;-88
2022/12/24 02:58:18;;;;;;;42.40;7.93;;;;;;;8.67;100.00;100814.16;5116125;27;20128;-87
2022/12/24 03:01:14;;;;;;;36.03;6.97;;;;;;;8.66;100.00;100807.16;5137962;27;20182;-89
2022/12/24 03:04:18;;;;;;;48.20;9.63;;;;;;;8.67;100.00;100805.38;5133697;27;20490;-89
2022/12/24 03:07:02;;;;;;;50.75;8.23;;;;;;;8.69;100.00;100816.81;5122343;27;20043;-89
2022/12/24 03:10:00;;;;;;;33.90;6.95;;;;;;;8.69;100.00;100812.38;5154183;27;20030;-90
2022/12/24 03:12:37;;;;;;;49.03;8.77;;;;;;;8.67;100.00;100814.16;5150370;27;20027;-89
2022/12/24 03:15:06;;;;;;;45.72;8.68;;;;;;;8.68;100.00;100821.22;5115503;27;20421;-90
2022/12/24 03:17:35;;;;;;;37.67;8.05;;;;;;;8.68;100.00;100815.94;5154562;27;20095;-89
2022/12/24 03:20:01;;;;;;;45.22;8.00;;;;;;;8.69;100.00;100814.16;5150489;27;20363;-90
2022/12/24 03:22:28;;;;;;;45.35;7.57;;;;;;;8.66;100.00;100815.09;5152109;27;20030;-89
2022/12/24 03:24:54;;;;;;;35.90;7.88;;;;;;;8.70;100.00;100815.91;5167303;27;20440;-89
2022/12/24 03:27:20;;;;;;;47.08;8.23;;;;;;;8.70;100.00;100815.91;5144325;27;20042;-90
2022/12/24 03:29:46;;;;;;;43.45;7.95;;;;;;;8.73;100.00;100821.13;5142230;27;20106;-89
2022/12/24 03:32:11;;;;;;;49.35;8.10;;;;;;;8.69;100.00;100814.16;5123228;27;20034;-90
2022/12/24 03:34:37;;;;;;;45.25;8.40;;;;;;;8.74;100.00;100828.16;5127405;27;20500;-90
2022/12/24 03:37:02;;;;;;;38.95;7.47;;;;;;;8.74;100.00;100822.88;5108880;27;20394;-89
2022/12/24 03:39:28;;;;;;;47.22;7.55;;;;;;;8.76;100.00;100826.38;5125050;27;20087;-90
2022/12/24 03:41:53;;;;;;;44.65;7.40;;;;;;;8.76;100.00;100823.75;5124661;27;20050;-90
2022/12/24 03:44:19;;;;;;;50.03;8.68;;;;;;;8.90;100.00;100823.53;5152298;27;20027;-89
2022/12/24 03:46:44;;;;;;;43.15;7.90;;;;;;;8.84;100.00;100821.84;5126348;27;20494;-90
2022/12/24 03:49:10;;;;;;;47.03;8.00;;;;;;;8.87;100.00;100826.22;5145857;27;20038;-89
2022/12/24 03:51:35;;;;;;;43.15;8.18;;;;;;;8.90;100.00;100831.44;5105479;27;20496;-90
2022/12/24 03:54:01;;;;;;;37.97;7.28;;;;;;;8.92;100.00;100827.00;5113812;27;20094;-90
2022/12/24 03:56:26;;;;;;;42.88;8.40;;;;;;;8.92;100.00;100835.81;5149380;27;20482;-89
2022/12/24 03:58:52;;;;;;;48.15;7.78;;;;;;;8.94;100.00;100834.00;5149993;27;20026;-87
2022/12/24 04:01:18;;;;;;;34.92;7.18;;;;;;;8.94;100.00;100838.44;5131127;27;20019;-87
2022/12/24 04:03:44;;;;;;;39.42;8.07;;;;;;;8.97;100.00;100831.31;5122616;27;20134;-90
2022/12/24 04:06:12;;;;;;;44.15;7.55;;;;;;;9.00;100.00;100830.41;5149406;27;20106;-89
2022/12/24 04:08:38;;;;;;;41.10;8.15;;;;;;;9.02;100.00;100832.13;5117760;27;20050;-89
2022/12/24 04:11:06;;;;;;;33.72;8.25;;;;;;;9.04;100.00;100842.66;5118792;27;20050;-89
2022/12/24 04:13:32;;;;;;;41.65;8.07;;;;;;;9.07;100.00;100834.69;5139195;27;20027;-90
2022/12/24 04:15:59;;;;;;;37.17;8.30;;;;;;;9.09;100.00;100842.59;5116554;27;20027;-86
2022/12/24 04:18:25;;;;;;;41.55;8.10;;;;;;;9.10;100.00;100854.91;5114308;27;20482;-86
2022/12/24 04:20:51;;;;;;;44.55;8.20;;;;;;;9.13;100.00;100849.59;5131757;27;20022;-86
2022/12/24 04:23:16;;;;;;;48.83;8.70;;;;;;;9.14;100.00;100853.97;5125981;27;20031;-87
2022/12/24 04:25:42;;;;;;;44.13;8.13;;;;;;;9.20;100.00;100844.19;5152284;27;20042;-87
2022/12/24 04:28:07;;;;;;;33.10;7.97;;;;;;;9.20;100.00;100857.41;5132786;27;20097;-87
2022/12/24 04:30:33;;;;;;;40.45;8.20;;;;;;;9.16;100.00;100846.91;5116788;27;20092;-86
2022/12/24 04:32:58;;;;;;;42.50;8.38;;;;;;;9.21;100.00;100851.19;5130169;27;20117;-87
2022/12/24 04:35:23;;;;;;;43.28;9.57;;;;;;;9.21;100.00;100861.78;5117756;27;20025;-87
2022/12/24 04:37:49;;;;;;;31.90;6.88;;;;;;;9.20;100.00;100854.75;5138943;27;20026;-87
2022/12/24 04:40:14;;;;;;;24.23;6.25;;;;;;;9.22;100.00;100857.34;5128963;27;20478;-87
2022/12/24 04:42:40;;;;;;;43.50;9.63;;;;;;;9.26;100.00;100856.41;5133875;27;20046;-86
2022/12/24 04:45:06;;;;;;;35.88;8.95;;;;;;;9.26;100.00;100861.69;5147576;27;20067;-86
2022/12/24 04:47:31;;;;;;;38.83;8.05;;;;;;;9.23;100.00;100867.03;5132292;27;20171;-87
2022/12/24 04:49:58;;;;;;;32.30;7.32;;;;;;;9.23;100.00;100864.41;5128458;27;20113;-86
2022/12/24 04:52:23;;;;;;;31.85;6.93;;;;;;;9.23;100.00;100878.47;5114526;27;20095;-87
2022/12/24 04:54:49;;;;;;;30.58;6.47;;;;;;;9.26;100.00;100870.50;5148876;27;20117;-86
2022/12/24 04:57:14;;;;;;;46.15;7.65;;;;;;;9.24;100.00;100869.66;5151138;27;20050;-88
2022/12/24 04:59:40;;;;;;;37.22;8.15;;;;;;;9.24;100.00;100866.13;5133727;27;20039;-88
2022/12/24 05:02:05;;;;;;;34.95;7.35;;;;;;;9.19;100.00;100873.25;5131039;27;20068;-89
2022/12/24 05:04:31;;;;;;;39.17;7.05;;;;;;;9.20;100.00;100872.38;5131812;27;20106;-78
2022/12/24 05:06:56;;;;;;;38.00;7.63;;;;;;;9.19;100.00;100871.50;5099907;27;20027;-79
2022/12/24 05:09:22;;;;;;;29.27;6.30;;;;;;;9.24;100.00;100867.00;5132241;27;20506;-78
2022/12/24 05:11:47;;;;;;;28.85;6.85;;;;;;;9.24;100.00;100879.34;5095355;27;20033;-79
2022/12/24 05:14:13;;;;;;;30.45;7.07;;;;;;;9.21;100.00;100871.47;5114270;27;20031;-78
2022/12/24 05:16:38;;;;;;;39.35;7.05;;;;;;;9.21;100.00;100877.63;5101205;27;20062;-79
2022/12/24 05:19:04;;;;;;;40.47;7.40;;;;;;;9.20;100.00;100878.53;5123138;27;20035;-78
2022/12/24 05:21:29;;;;;;;32.00;6.90;;;;;;;9.20;100.00;100888.25;5083378;27;20023;-88
2022/12/24 05:26:50;;;;;;;40.67;7.50;;;;;;;9.23;100.00;100873.19;5136617;27;20504;-88
2022/12/24 05:29:16;;;;;;;38.17;6.63;;;;;;;9.19;100.00;100866.19;5147195;27;20553;-88
2022/12/24 05:31:43;;;;;;;35.17;6.55;;;;;;;9.19;100.00;100876.78;5147365;27;20035;-88
2022/12/24 05:34:10;;;;;;;35.38;6.95;;;;;;;9.14;100.00;100873.34;5130963;27;20501;-88
2022/12/24 05:36:36;;;;;;;36.58;6.88;;;;;;;9.14;100.00;100868.03;5132536;27;20043;-88
2022/12/24 05:39:02;;;;;;;41.28;7.97;;;;;;;9.19;100.00;100874.13;5132664;27;20022;-87
2022/12/24 05:41:27;;;;;;;40.17;6.72;;;;;;;9.15;100.00;100883.03;5133228;27;20474;-88
2022/12/24 05:43:53;;;;;;;27.08;6.10;;;;;;;9.13;100.00;100884.81;5119892;27;20069;-88
2022/12/24 05:46:20;;;;;;;43.45;8.30;;;;;;;9.15;100.00;100890.94;5124876;27;20019;-88
2022/12/24 05:48:47;;;;;;;33.08;6.07;;;;;;;9.17;100.00;100890.91;5128150;27;20470;-87
2022/12/24 05:51:14;;;;;;;34.80;6.55;;;;;;;9.14;100.00;100894.47;5149813;27;20123;-87
2022/12/24 05:53:40;;;;;;;42.08;8.70;;;;;;;9.11;100.00;100885.72;5115070;27;20035;-87
2022/12/24 05:56:08;;;;;;;36.00;7.82;;;;;;;9.16;100.00;100897.09;5135279;27;20385;-88
2022/12/24 05:58:34;;;;;;;39.58;7.55;;;;;;;9.17;100.00;100919.97;5148125;27;20383;-88
2022/12/24 06:01:02;;;;;;;40.28;7.38;;;;;;;9.15;100.00;100922.66;5144239;27;20098;-88
2022/12/24 06:03:28;;;;;;;41.85;8.15;;;;;;;9.14;100.00;100918.25;5149784;27;20039;-88
2022/12/24 06:06:10;;;;;;;36.08;6.80;;;;;;;9.20;100.00;100919.94;5149634;27;20062;-88
2022/12/24 06:08:37;;;;;;;36.22;7.65;;;;;;;9.17;100.00;100927.91;5153568;27;20486;-88
2022/12/24 06:11:06;;;;;;;41.67;8.27;;;;;;;9.16;100.00;100931.44;5150377;27;20020;-88
2022/12/24 06:13:32;;;;;;;40.47;8.00;;;;;;;9.12;100.00;100924.44;5136426;27;20081;-87
2022/12/24 06:15:59;;;;;;;36.65;7.65;;;;;;;9.08;100.00;100910.44;5147043;27;20095;-88
2022/12/24 06:18:25;;;;;;;42.83;8.10;;;;;;;9.19;100.00;100926.09;5149000;27;20062;-89
2022/12/24 06:20:54;;;;;;;43.75;8.23;;;;;;;9.12;100.00;100932.38;5115286;27;20619;-88
2022/12/24 06:23:21;;;;;;;40.25;7.70;;;;;;;9.12;100.00;100937.66;5129486;27;20015;-88
2022/12/24 06:25:47;;;;;;;35.58;7.05;;;;;;;9.09;100.00;100929.78;5126559;27;20091;-87
2022/12/24 06:28:13;;;;;;;37.15;7.20;;;;;;;9.13;100.00;100928.84;5117744;27;20148;-88
2022/12/24 06:30:39;;;;;;;38.95;7.60;;;;;;;9.11;100.00;100938.56;5118989;27;20043;-87
2022/12/24 06:33:05;;;;;;;36.72;7.47;;;;;;;9.12;100.00;100914.75;5141319;27;20022;-87
2022/12/24 06:35:31;;;;;;;33.97;6.53;;;;;;;9.09;100.00;100945.63;5091829;27;20391;-87
2022/12/24 06:37:58;;;;;;;36.60;8.23;;;;;;;9.06;100.00;100951.84;5120782;27;20027;-88
2022/12/24 06:40:24;;;;;;;38.85;7.00;;;;;;;9.06;100.00;100965.03;5119137;27;20019;-88
2022/12/24 06:42:50;;;;;;;37.90;7.72;;;;;;;9.09;100.00;100964.13;5118257;27;20034;-86
2022/12/24 06:45:15;;;;;;;38.42;7.18;;;;;;;9.07;100.00;100953.56;5117896;27;20023;-87
2022/12/24 06:47:41;;;;;;;30.48;6.80;;;;;;;9.12;100.00;100956.16;5147393;27;20497;-87
2022/12/24 06:50:07;;;;;;;35.17;6.97;;;;;;;9.10;100.00;100953.56;5138622;27;20030;-87
2022/12/24 06:52:32;;;;;;;37.13;7.10;;;;;;;9.10;100.00;100964.13;5146235;27;20059;-88
2022/12/24 06:54:58;;;;;;;34.63;6.25;;;;;;;9.08;100.00;100957.09;5120023;27;20035;-86
2022/12/24 06:57:23;;;;;;;39.88;7.18;;;;;;;9.07;100.00;100964.13;5156424;27;20550;-87
2022/12/24 06:59:49;;;;;;;34.90;6.80;;;;;;;9.07;100.00;100953.56;5124986;27;20034;-86
2022/12/24 07:02:14;;;;;;;41.90;7.57;;;;;;;9.07;100.00;100961.50;5120443;27;20039;-87
2022/12/24 07:04:40;;;;;;;40.53;8.65;;;;;;;9.04;100.00;100964.19;5139943;27;20045;-88
2022/12/24 07:07:05;;;;;;;40.60;7.22;;;;;;;9.04;100.00;100965.06;5111681;27;20026;-88
2022/12/24 07:09:31;;;;;;;40.10;7.47;;;;;;;9.00;100.00;100975.69;5120046;27;20027;-88
2022/12/24 07:11:56;;;;;;;42.60;7.78;;;;;;;9.00;100.00;100966.00;5144945;27;20516;-86
2022/12/24 07:14:22;;;;;;;36.60;6.47;;;;;;;8.96;100.00;100974.84;5155249;27;20469;-87
2022/12/24 07:16:48;;;;;;;41.42;7.93;;;;;;;8.95;100.00;100978.41;5133186;27;20031;-87
2022/12/24 07:19:14;;;;;;;41.72;8.00;;;;;;;8.95;100.00;100988.97;5130730;27;20118;-87
2022/12/24 07:21:39;;;;;;;40.30;6.93;;;;;;;8.96;100.00;100988.06;5141209;27;20097;-86
2022/12/24 07:24:05;;;;;;;45.63;7.80;;;;;;;8.94;100.00;100984.56;5144787;27;20042;-88
2022/12/24 07:26:31;;;;;;;35.05;6.57;;;;;;;8.93;100.00;100990.75;5131575;27;20141;-87
2022/12/24 07:28:57;;;;;;;39.72;7.22;;;;;;;8.91;100.00;100987.25;5144815;27;20050;-87
2022/12/24 07:31:22;;;;;;;38.90;7.00;;;;;;;8.90;100.00;100995.19;5122977;27;20397;-87
2022/12/24 07:33:48;;;;;;;45.72;7.75;;;;;;;8.82;100.00;100993.50;5121317;27;20023;-87
2022/12/24 07:36:18;;;;;;;33.00;6.80;;;;;;;8.80;100.00;101003.25;5148390;27;20066;-87
2022/12/24 07:38:44;;;;;;;42.42;7.85;;;;;;;8.76;100.00;101009.44;5131299;27;20028;-86
2022/12/24 07:41:10;;;;;;;41.72;7.00;;;;;;;8.75;100.00;101010.34;5111658;27;20057;-87
2022/12/24 07:43:35;;;;;;;42.90;7.30;;;;;;;8.71;100.00;101015.66;5136597;27;20034;-77
2022/12/24 07:46:01;;;;;;;32.50;6.68;;;;;;;8.67;100.00;101011.31;5145496;27;20071;-77
2022/12/24 07:48:28;;;;;;;38.25;7.15;;;;;;;8.64;100.00;101012.22;5130421;27;20038;-77
2022/12/24 07:50:56;;;;;;;36.22;6.25;;;;;;;8.58;100.00;101012.25;5107057;27;20398;-77
2022/12/24 07:53:22;;;;;;;35.55;6.45;;;;;;;8.57;100.00;101023.72;5105282;27;20043;-77
2022/12/24 07:55:47;;;;;;;46.38;7.07;;;;;;;8.57;100.00;101031.66;5118022;27;20055;-77
2022/12/24 07:58:13;;;;;;;48.05;7.82;;;;;;;8.56;100.00;101046.63;5136618;27;20049;-76
2022/12/24 08:00:38;;;;;;;31.48;6.97;;;;;;;8.59;100.00;101049.22;5136451;27;20493;-77
2022/12/24 08:03:04;;;;;;;39.22;7.05;;;;;;;8.59;100.00;101053.63;5151358;27;20031;-77
2022/12/24 08:05:35;;;;;;;36.15;7.15;;;;;;;8.58;100.00;101065.97;5136740;27;20026;-77
2022/12/24 08:08:01;;;;;;;38.33;7.25;;;;;;;8.59;100.00;101061.56;5137106;27;20031;-77
2022/12/24 08:10:27;;;;;;;43.78;6.97;;;;;;;8.58;100.00;101063.31;5137248;27;20038;-77
2022/12/24 08:12:52;;;;;;;55.55;9.85;;;;;;;8.57;100.00;101073.88;5138103;27;20063;-77
2022/12/24 08:15:18;;;;;;;38.22;6.72;;;;;;;8.55;100.00;101070.38;5118405;27;20035;-77
2022/12/24 08:17:44;;;;;;;49.30;7.97;;;;;;;8.58;100.00;101080.91;5121368;27;20027;-77
2022/12/24 08:20:10;;;;;;;43.58;6.75;;;;;;;8.62;100.00;101080.00;5115135;27;20031;-77
2022/12/24 08:22:36;;;;;;;37.20;8.00;;;;;;;8.64;100.00;101095.81;5128691;27;20023;-76
2022/12/24 08:25:01;;;;;;;37.88;7.82;;;;;;;8.61;100.00;101091.44;5115642;27;20035;-77
2022/12/24 08:27:27;;;;;;;40.22;7.20;;;;;;;8.66;100.00;101094.06;5124774;27;20043;-77
2022/12/24 08:29:52;;;;;;;44.67;6.57;;;;;;;8.68;100.00;101101.06;5134435;27;20134;-77
2022/12/24 08:32:18;;;;;;;48.83;7.78;;;;;;;8.74;100.00;101105.41;5100770;27;20449;-77
2022/12/24 08:34:43;;;;;;;35.10;6.68;;;;;;;8.71;100.00;101102.81;5119533;27;20056;-77
2022/12/24 08:37:09;;;;;;;35.83;6.68;;;;;;;8.73;100.00;101109.81;5113465;27;20372;-77
2022/12/24 08:39:34;;;;;;;34.95;6.78;;;;;;;8.76;100.00;101104.50;5126463;27;20122;-77
2022/12/24 08:42:00;;;;;;;38.75;6.50;;;;;;;8.78;100.00;101113.28;5114967;27;20386;-77
2022/12/24 08:44:25;;;;;;;41.20;7.32;;;;;;;8.76;100.00;101111.56;5117369;27;20026;-77
2022/12/24 08:46:51;;;;;;;47.88;7.05;;;;;;;8.78;100.00;101110.66;5113553;27;20030;-77
2022/12/24 08:49:16;;;;;;;36.13;6.45;;;;;;;8.79;100.00;101114.16;5123690;27;20091;-77
2022/12/24 08:51:41;;;;;;;38.95;6.78;;;;;;;8.81;100.00;101123.81;5124141;27;20034;-77
2022/12/24 08:54:07;;;;;;;42.38;6.30;;;;;;;8.79;100.00;101122.06;5141061;27;20114;-77
2022/12/24 08:56:33;;;;;;;31.10;5.72;;;;;;;8.84;100.00;101128.19;5114353;27;20404;-77
2022/12/24 08:58:59;;;;;;;36.80;6.47;;;;;;;8.85;100.00;101127.28;5115369;27;20050;-77
2022/12/24 09:01:25;;;;;;;44.10;8.07;;;;;;;8.87;100.00;101138.72;5152367;27;20031;-77
2022/12/24 09:03:50;;;;;;;41.72;6.80;;;;;;;8.91;100.00;101148.34;5133585;27;20014;-77
2022/12/24 09:06:16;;;;;;;42.03;6.70;;;;;;;8.91;100.00;101137.78;5153367;27;20421;-77
2022/12/24 09:08:42;;;;;;;39.63;6.85;;;;;;;8.95;100.00;101142.16;5117630;27;20075;-77
2022/12/24 09:11:10;;;;;;;44.42;8.25;;;;;;;8.94;100.00;101137.75;5097756;27;20014;-77
2022/12/24 09:13:37;;;;;;;39.03;8.45;;;;;;;8.96;100.00;101149.19;5142859;27;20302;-77
2022/12/24 09:16:03;;;;;;;37.45;7.43;;;;;;;8.97;100.00;101156.22;5140331;27;20122;-77
2022/12/24 09:18:29;;;;;;;38.67;7.55;;;;;;;9.04;100.00;101155.25;5124786;27;20434;-77
2022/12/24 09:21:01;;;;;;;38.42;8.57;;;;;;;9.08;100.00;101163.16;5146823;27;20038;-77
2022/12/24 09:23:28;;;;;;;46.22;8.30;;;;;;;9.09;100.00;101162.25;5116222;27;20031;-77
2022/12/24 09:25:54;;;;;;;49.05;7.03;;;;;;;9.08;100.00;101165.81;5142522;27;20481;-78
2022/12/24 09:28:19;;;;;;;31.20;7.25;;;;;;;9.10;100.00;101177.22;5127944;27;20019;-77
2022/12/24 09:30:57;;;;;;;40.65;7.63;;;;;;;9.10;100.00;101182.50;5127045;27;20050;-77
2022/12/24 09:33:23;;;;;;;38.95;8.57;;;;;;;9.09;100.00;101192.19;5136246;27;20031;-77
2022/12/24 09:35:54;;;;;;;29.40;6.45;;;;;;;9.10;100.00;101187.78;5113235;27;20152;-77
2022/12/24 09:38:21;;;;;;;50.83;8.23;;;;;;;9.12;100.00;101197.44;5129350;27;20105;-77
2022/12/24 09:40:47;;;;;;;44.17;8.20;;;;;;;9.13;100.00;101193.94;5136031;27;20041;-77
2022/12/24 09:43:17;;;;;;;48.67;9.00;;;;;;;9.14;100.00;101194.78;5130238;27;20031;-78
2022/12/24 09:45:58;;;;;;;33.05;7.20;;;;;;;9.16;100.00;101199.19;5105640;27;20139;-77
2022/12/24 09:48:34;;;;;;;40.75;8.05;;;;;;;9.16;100.00;101199.19;5155565;27;20393;-78
2022/12/24 09:51:02;;;;;;;43.67;7.78;;;;;;;9.24;100.00;101201.72;5111049;27;20038;-78
2022/12/24 09:53:44;;;;;;;37.42;7.45;;;;;;;9.23;100.00;101200.00;5121669;27;20042;-78
2022/12/24 09:56:21;;;;;;;50.08;7.88;;;;;;;9.25;100.00;101199.09;5107151;27;20046;-79
2022/12/24 09:58:53;;;;;;;39.88;7.93;;;;;;;9.29;100.00;101209.63;5157465;27;20030;-77
2022/12/24 10:01:19;;;;;;;49.67;8.35;;;;;;;9.34;100.00;101213.94;5118536;27;20463;-78
2022/12/24 10:03:45;;;;;;;44.03;8.18;;;;;;;9.35;100.00;101217.50;5092973;27;20052;-78
2022/12/24 10:06:20;;;;;;;49.60;8.25;;;;;;;9.37;100.00;101224.50;5129840;27;20407;-77
2022/12/24 10:08:49;;;;;;;44.92;7.75;;;;;;;9.45;100.00;101227.94;5120896;27;20505;-77
2022/12/24 10:11:42;;;;;;;38.65;7.18;;;;;;;9.50;100.00;101224.38;5118457;27;20023;-77
2022/12/24 10:14:20;;;;;;;46.55;7.75;;;;;;;9.55;100.00;101219.91;5118265;27;20038;-78
2022/12/24 10:16:52;;;;;;;41.13;8.13;;;;;;;9.65;100.00;101222.41;5132604;27;20095;-78
2022/12/24 10:19:31;;;;;;;33.85;7.75;;;;;;;9.71;100.00;101223.25;5133105;27;20034;-78
2022/12/24 10:21:56;;;;;;;37.42;7.57;;;;;;;9.75;100.00;101222.31;5144034;27;20035;-78
2022/12/24 10:24:27;;;;;;;40.83;7.93;;;;;;;9.77;100.00;101212.59;5120073;27;20118;-79
2022/12/24 10:27:01;;;;;;;42.10;7.45;;;;;;;9.82;100.00;101211.63;5124538;27;20116;-78
2022/12/24 10:29:32;;;;;;;39.50;8.13;;;;;;;9.88;100.00;101210.69;5136490;27;20034;-78
2022/12/24 10:32:06;;;;;;;52.25;8.18;;;;;;;9.93;100.00;101211.50;5142115;27;20038;-78
2022/12/24 10:34:42;;;;;;;39.15;7.72;;;;;;;9.94;100.00;101218.56;5105840;27;20127;-78
2022/12/24 10:37:16;;;;;;;39.83;8.23;;;;;;;9.89;100.00;101209.78;5106244;27;20430;-78
2022/12/24 10:39:42;;;;;;;47.58;8.45;;;;;;;9.87;100.00;101211.59;5123780;27;20028;-78
2022/12/24 10:42:13;;;;;;;36.00;7.55;;;;;;;9.85;100.00;101216.88;5083647;27;20067;-78
2022/12/24 10:44:39;;;;;;;35.22;7.07;;;;;;;9.84;100.00;101225.72;5114142;27;20069;-78
2022/12/24 10:47:08;;;;;;;38.72;7.15;;;;;;;9.85;100.00;101223.94;5130981;27;20349;-81
2022/12/24 10:49:45;;;;;;;43.85;9.07;;;;;;;9.81;100.00;101227.50;5109660;27;20065;-79
2022/12/24 10:52:14;;;;;;;49.55;7.85;;;;;;;9.79;100.00;101216.06;5148874;27;20031;-79
2022/12/24 10:55:07;;;;;;;41.22;7.57;;;;;;;9.82;100.00;101218.72;5129220;27;20041;-79
2022/12/24 10:57:34;;;;;;;44.58;7.88;;;;;;;9.82;100.00;101222.22;5120446;27;20043;-79
2022/12/24 11:00:00;;;;;;;37.28;8.50;;;;;;;9.85;100.00;101230.09;5083202;27;20037;-79
2022/12/24 11:02:37;;;;;;;50.83;9.20;;;;;;;9.88;100.00;101218.63;5114997;27;20499;-79
2022/12/24 11:05:26;;;;;;;42.65;9.25;;;;;;;9.86;100.00;101220.41;5128781;27;20042;-79
2022/12/24 11:08:00;;;;;;;38.85;8.20;;;;;;;9.85;100.00;101229.25;5120126;27;20076;-80
2022/12/24 11:10:25;;;;;;;35.70;7.88;;;;;;;9.83;100.00;101234.53;5144666;27;20091;-78
2022/12/24 11:12:51;;;;;;;32.53;7.57;;;;;;;9.82;100.00;101230.16;5131438;27;20023;-79
2022/12/24 11:15:21;;;;;;;33.88;7.30;;;;;;;9.82;100.00;101237.22;5086876;27;20039;-78
2022/12/24 11:17:58;;;;;;;36.88;7.00;;;;;;;9.85;100.00;101239.81;5128966;27;20023;-79
2022/12/24 11:20:27;;;;;;;32.25;7.43;;;;;;;9.84;100.00;101241.59;5125211;27;20068;-79
2022/12/24 11:22:53;;;;;;;26.55;6.45;;;;;;;9.83;100.00;101236.31;5154910;27;20030;-79
2022/12/24 11:25:23;;;;;;;40.63;6.93;;;;;;;9.81;99.25;101232.81;5116339;27;20080;-79
2022/12/24 11:27:50;;;;;;;33.40;6.25;;;;;;;9.84;98.34;101244.25;5113701;27;20023;-78
2022/12/24 11:30:15;;;;;;;29.75;6.25;;;;;;;9.82;97.74;101247.81;5102395;27;20501;-79